Flight Track Log - Related Links

Times and Time Zones

All times are in EDT time to prevent confusion due to time zone crossing. See the UPS1269 flight status page for this flight to view local times or setup timezone preferences in your user account.

Time Position Orientation Groundspeed Altitude Reporting Facility
EDT Latitude Longitude Course Direction KTS MPH feet Rate Location/Type
Thu 11:29:09 PM 36.2308 -79.9100 308° West 286 329 8,400  Level Atlanta Center
Thu 11:30:09 PM 36.2719 -80.0214 295° West 328 377 10,800 1,800 Climbing Atlanta Center
Thu 11:31:09 PM 36.3128 -80.1250 296° West 373 429 12,000 1,350 Climbing Atlanta Center
Thu 11:32:09 PM 36.3478 -80.2417 290° West 387 445 13,500 2,200 Climbing Atlanta Center
Thu 11:33:00 PM 36.4496 -80.5740 296° West  Level FlightAware Approximate
Thu 11:33:09 PM 36.3728 -80.3747 283° West 393 452 16,400  Level Atlanta Center
Thu 11:34:00 PM 36.5108 -80.6773 308° West  Level FlightAware Approximate
Thu 11:38:59 PM 36.5963 -81.2528 283° West 473 544 28,000  Level FlightAware ADS-B
Thu 11:40:15 PM 36.6543 -81.4432 291° West 472 543 28,000  Level FlightAware ADS-B
Thu 11:40:46 PM 36.6781 -81.5217 291° West 468 539 28,000  Level FlightAware ADS-B
Thu 11:41:16 PM 36.7015 -81.5989 291° West 467 537 28,000  Level FlightAware ADS-B
Thu 11:42:09 PM 36.7414 -81.7316 291° West 466 536 28,000  Level FlightAware ADS-B
Thu 11:43:31 PM 36.8028 -81.9372 291° West 467 537 28,000  Level FlightAware ADS-B
Thu 11:44:01 PM 36.8252 -82.0123 290° West 464 534 28,000  Level FlightAware ADS-B
Thu 11:44:31 PM 36.8475 -82.0876 290° West 465 535 28,000  Level FlightAware ADS-B
Thu 11:45:02 PM 36.8704 -82.1645 290° West 464 534 28,000  Level FlightAware ADS-B
Thu 11:45:41 PM 36.9000 -82.2643 290° West 466 536 28,000  Level FlightAware ADS-B
Thu 11:46:19 PM 36.9277 -82.3588 290° West 467 537 28,000  Level FlightAware ADS-B
Thu 11:46:55 PM 36.9545 -82.4502 290° West 466 536 28,000  Level FlightAware ADS-B
Thu 11:47:26 PM 36.9773 -82.5283 290° West 465 535 28,000  Level FlightAware ADS-B
Thu 11:47:57 PM 36.9998 -82.6058 290° West 465 535 28,000  Level FlightAware ADS-B
Thu 11:48:27 PM 37.0224 -82.6828 290° West 465 535 28,000  Level FlightAware ADS-B
Thu 11:48:57 PM 37.0444 -82.7587 290° West 466 536 28,000  Level FlightAware ADS-B
Thu 11:49:28 PM 37.0669 -82.8366 290° West 467 537 28,000  Level FlightAware ADS-B
Thu 11:49:58 PM 37.0889 -82.9133 290° West 468 539 28,000  Level FlightAware ADS-B
Thu 11:50:33 PM 37.1147 -83.0032 290° West 469 540 28,000  Level FlightAware ADS-B
Thu 11:51:17 PM 37.1464 -83.1139 290° West 470 541 28,000  Level FlightAware ADS-B
Thu 11:51:47 PM 37.1685 -83.1910 290° West 470 541 28,000  Level FlightAware ADS-B
Thu 11:52:18 PM 37.1909 -83.2696 290° West 470 541 28,000  Level FlightAware ADS-B
Thu 11:52:48 PM 37.2132 -83.3484 290° West 471 542 28,000  Level FlightAware ADS-B
Thu 11:53:20 PM 37.2360 -83.4292 290° West 471 542 28,000  Level FlightAware ADS-B
Thu 11:53:50 PM 37.2578 -83.5066 290° West 472 543 28,000 -200 Level FlightAware ADS-B
Thu 11:54:20 PM 37.2797 -83.5845 289° West 474 545 27,800 -716 Descending FlightAware ADS-B
Thu 11:54:57 PM 37.3062 -83.6795 289° West 472 543 27,200 -971 Descending FlightAware ADS-B
Thu 11:55:28 PM 37.3286 -83.7596 289° West 472 543 26,700 -1,048 Descending FlightAware ADS-B
Thu 11:56:00 PM 37.3517 -83.8424 289° West 475 547 26,100 -1,065 Descending FlightAware ADS-B
Thu 11:56:30 PM 37.3740 -83.9225 289° West 474 545 25,600 -1,065 Descending FlightAware ADS-B
Thu 11:57:02 PM 37.3966 -84.0042 289° West 471 542 25,000 -1,023 Descending FlightAware ADS-B
Thu 11:57:58 PM 37.4350 -84.1440 289° West 460 529 24,100 -1,040 Descending FlightAware ADS-B
Thu 11:58:17 PM 37.4489 -84.1949 289° West 460 529 23,700 -1,100 Descending FlightAware ADS-B
Thu 11:58:58 PM 37.4770 -84.2972 289° West 460 529 23,000 -1,014 Descending FlightAware ADS-B
Thu 11:59:28 PM 37.4978 -84.3732 289° West 450 518 22,500 -1,575 Descending FlightAware ADS-B
Fri 12:00:18 AM 37.5300 -84.4910 289° West 442 509 20,900 -2,329 Descending FlightAware ADS-B
Fri 12:00:53 AM 37.5520 -84.5740 289° West 431 496 19,200 -3,167 Descending FlightAware ADS-B
Fri 12:01:30 AM 37.5770 -84.6650 289° West 419 482 17,100 -3,465 Descending FlightAware ADS-B
Fri 12:02:04 AM 37.5980 -84.7420 289° West 409 471 15,100 -3,343 Descending FlightAware ADS-B
Fri 12:02:40 AM 37.6180 -84.8190 288° West 399 459 13,200 -3,257 Descending FlightAware ADS-B
Fri 12:03:14 AM 37.6390 -84.8950 289° West 390 449 11,300 -2,382 Descending FlightAware ADS-B
Fri 12:03:48 AM 37.6630 -84.9640 294° West 358 412 10,500 -1,054 Descending FlightAware ADS-B
Fri 12:04:28 AM 37.7040 -85.0220 312° West 325 374 10,000 -517 Descending FlightAware ADS-B
Fri 12:04:46 AM 37.7220 -85.0470 312° West 302 348 10,000 -167 Level FlightAware ADS-B
Fri 12:05:04 AM 37.7380 -85.0690 313° West 296 341 9,900 -300 Descending FlightAware ADS-B
Fri 12:05:46 AM 37.7730 -85.1180 312° West 291 335 9,700 -222 Descending FlightAware ADS-B
Fri 12:05:58 AM 37.7820 -85.1310 311° West 291 335 9,700 -1,350 Level FlightAware ADS-B
Fri 12:06:26 AM 37.8120 -85.1710 314° West 288 331 8,800 -1,000 Descending FlightAware ADS-B
Fri 12:06:52 AM 37.8320 -85.1990 312° West 288 331 8,800  Level FlightAware ADS-B
Fri 12:07:04 AM 37.8410 -85.2120 311° West 288 331 8,800  Level FlightAware ADS-B
Fri 12:07:26 AM 37.8580 -85.2350 313° West 288 331 8,800  Level FlightAware ADS-B
Fri 12:07:50 AM 37.8760 -85.2610 311° West 288 331 8,800  Level FlightAware ADS-B
Fri 12:08:02 AM 37.8850 -85.2740 311° West 288 331 8,800 -2,400 Level FlightAware ADS-B
Fri 12:09:05 AM 37.9010 -85.3690 282° West 233 268 5,800 -2,429 Descending FlightAware ADS-B
Fri 12:09:26 AM 37.8940 -85.3980 253° West 227 261 5,400 -1,200 Descending FlightAware ADS-B
Fri 12:09:45 AM 37.8880 -85.4200 251° West 230 265 5,000 -1,091 Descending FlightAware ADS-B
Fri 12:10:10 AM 37.8800 -85.4540 253° West 230 265 4,600 -878 Descending FlightAware ADS-B
Fri 12:10:26 AM 37.8760 -85.4720 254° West 232 267 4,400 -286 Descending FlightAware ADS-B
Fri 12:10:52 AM 37.8720 -85.5020 260° West 232 267 4,400 -528 Level FlightAware ADS-B
Fri 12:13:05 AM 37.9700 -85.6460 311° West 234 269 3,000 -600 Descending FlightAware ADS-B
Fri 12:13:12 AM 37.9760 -85.6510 327° Northwest 233 268 3,000  Level FlightAware ADS-B
Fri 12:13:21 AM 37.9860 -85.6580 331° Northwest 231 266 3,000  Level FlightAware ADS-B
Fri 12:13:45 AM 38.0090 -85.6700 338° Northwest 224 258 3,000 -136 Level FlightAware ADS-B
Fri 12:14:05 AM 38.0290 -85.6780 343° North 207 238 2,900 -293 Descending FlightAware ADS-B
Fri 12:14:26 AM 38.0470 -85.6840 345° North 197 227 2,800 -800 Descending FlightAware ADS-B
Fri 12:14:50 AM 38.0670 -85.6900 347° North 193 222 2,300 -1,143 Descending FlightAware ADS-B
Fri 12:15:08 AM 38.0820 -85.6950 345° North 181 208 2,000 -923 Descending FlightAware ADS-B
Fri 12:15:29 AM 38.0990 -85.7010 344° North 155 178 1,700 -732 Descending FlightAware ADS-B
Fri 12:15:49 AM 38.1130 -85.7060 344° North 147 169 1,500 -667 Descending FlightAware ADS-B
Fri 12:16:14 AM 38.1280 -85.7110 345° North 148 170 1,200 -750 Descending FlightAware ADS-B
Fri 12:16:29 AM 38.1390 -85.7150 344° North 148 170 1,000 -714 Descending FlightAware ADS-B
Fri 12:16:56 AM 38.1560 -85.7210 344° North 146 168 700 -714 Descending FlightAware ADS-B
Fri 12:17:11 AM 38.1660 -85.7240 347° North 142 163 500 -286 Descending FlightAware ADS-B
Fri 12:17:38 AM 38.1800 -85.7290 344° North 142 163 500  Level FlightAware ADS-B

Login

Don't have an account? Register now (free) for customized features, flight alerts, and more!